sensor_id;sensor_type;location;lat;lon;timestamp;temperature;humidity
43607;DHT22;29197;44.788;10.366;2023-04-03T00:01:27;12.50;99.90
43607;DHT22;29197;44.788;10.366;2023-04-03T00:04:16;12.90;99.90
43607;DHT22;29197;44.788;10.366;2023-04-03T00:07:04;13.10;99.90
43607;DHT22;29197;44.788;10.366;2023-04-03T00:09:54;13.00;99.90
43607;DHT22;29197;44.788;10.366;2023-04-03T00:12:42;13.00;99.90
43607;DHT22;29197;44.788;10.366;2023-04-03T00:15:31;13.20;99.90
43607;DHT22;29197;44.788;10.366;2023-04-03T00:18:20;13.40;99.90
43607;DHT22;29197;44.788;10.366;2023-04-03T00:21:10;13.50;99.90
43607;DHT22;29197;44.788;10.366;2023-04-03T00:24:00;13.60;99.90
43607;DHT22;29197;44.788;10.366;2023-04-03T00:26:50;13.70;99.90
43607;DHT22;29197;44.788;10.366;2023-04-03T00:29:39;13.80;99.90
43607;DHT22;29197;44.788;10.366;2023-04-03T00:32:27;13.90;99.90
43607;DHT22;29197;44.788;10.366;2023-04-03T00:35:16;13.90;99.90
43607;DHT22;29197;44.788;10.366;2023-04-03T00:38:05;13.90;99.90
43607;DHT22;29197;44.788;10.366;2023-04-03T00:40:53;13.90;99.90
43607;DHT22;29197;44.788;10.366;2023-04-03T00:43:43;13.70;99.90
43607;DHT22;29197;44.788;10.366;2023-04-03T00:46:32;13.60;99.90
43607;DHT22;29197;44.788;10.366;2023-04-03T00:49:20;13.60;99.90
43607;DHT22;29197;44.788;10.366;2023-04-03T00:52:11;13.70;99.90
43607;DHT22;29197;44.788;10.366;2023-04-03T00:55:05;13.80;99.90
43607;DHT22;29197;44.788;10.366;2023-04-03T00:57:55;13.90;99.90
43607;DHT22;29197;44.788;10.366;2023-04-03T01:00:50;14.00;99.90
43607;DHT22;29197;44.788;10.366;2023-04-03T01:03:43;14.00;99.90
43607;DHT22;29197;44.788;10.366;2023-04-03T01:06:33;14.00;99.90
43607;DHT22;29197;44.788;10.366;2023-04-03T01:09:23;14.00;99.90
43607;DHT22;29197;44.788;10.366;2023-04-03T01:12:15;13.90;99.90
43607;DHT22;29197;44.788;10.366;2023-04-03T01:15:07;13.70;99.90
43607;DHT22;29197;44.788;10.366;2023-04-03T01:17:58;13.50;99.90
43607;DHT22;29197;44.788;10.366;2023-04-03T01:24:31;12.70;99.90
43607;DHT22;29197;44.788;10.366;2023-04-03T01:27:20;12.50;99.90
43607;DHT22;29197;44.788;10.366;2023-04-03T01:30:09;12.60;99.90
43607;DHT22;29197;44.788;10.366;2023-04-03T01:32:59;12.70;99.90
43607;DHT22;29197;44.788;10.366;2023-04-03T01:35:48;12.80;99.90
43607;DHT22;29197;44.788;10.366;2023-04-03T01:38:37;12.80;99.90
43607;DHT22;29197;44.788;10.366;2023-04-03T01:41:25;12.80;99.90
43607;DHT22;29197;44.788;10.366;2023-04-03T01:44:14;12.50;99.90
43607;DHT22;29197;44.788;10.366;2023-04-03T01:47:05;12.30;99.90
43607;DHT22;29197;44.788;10.366;2023-04-03T01:49:55;12.50;99.90
43607;DHT22;29197;44.788;10.366;2023-04-03T01:52:44;12.90;99.90
43607;DHT22;29197;44.788;10.366;2023-04-03T01:55:32;13.20;99.90
43607;DHT22;29197;44.788;10.366;2023-04-03T01:58:21;13.20;99.90
43607;DHT22;29197;44.788;10.366;2023-04-03T02:01:09;13.00;99.90
43607;DHT22;29197;44.788;10.366;2023-04-03T02:03:58;12.70;99.90
43607;DHT22;29197;44.788;10.366;2023-04-03T02:06:48;12.50;99.90
43607;DHT22;29197;44.788;10.366;2023-04-03T02:09:36;12.60;99.90
43607;DHT22;29197;44.788;10.366;2023-04-03T02:12:25;12.60;99.90
43607;DHT22;29197;44.788;10.366;2023-04-03T02:15:13;12.50;99.90
43607;DHT22;29197;44.788;10.366;2023-04-03T02:18:02;12.60;99.90
43607;DHT22;29197;44.788;10.366;2023-04-03T02:20:53;12.40;99.90
43607;DHT22;29197;44.788;10.366;2023-04-03T02:23:43;12.50;99.90
43607;DHT22;29197;44.788;10.366;2023-04-03T02:26:32;12.60;99.90
43607;DHT22;29197;44.788;10.366;2023-04-03T02:29:20;12.40;99.90
43607;DHT22;29197;44.788;10.366;2023-04-03T02:32:09;12.50;99.90
43607;DHT22;29197;44.788;10.366;2023-04-03T02:34:58;12.60;99.90
43607;DHT22;29197;44.788;10.366;2023-04-03T02:37:46;12.70;99.90
43607;DHT22;29197;44.788;10.366;2023-04-03T02:40:37;13.00;99.90
43607;DHT22;29197;44.788;10.366;2023-04-03T02:43:26;13.10;99.90
43607;DHT22;29197;44.788;10.366;2023-04-03T02:46:14;13.00;99.90
43607;DHT22;29197;44.788;10.366;2023-04-03T02:49:03;13.10;99.90
43607;DHT22;29197;44.788;10.366;2023-04-03T02:51:52;13.10;99.90
43607;DHT22;29197;44.788;10.366;2023-04-03T02:54:40;13.20;99.90
43607;DHT22;29197;44.788;10.366;2023-04-03T02:57:30;13.30;99.90
43607;DHT22;29197;44.788;10.366;2023-04-03T03:00:20;13.00;99.90
43607;DHT22;29197;44.788;10.366;2023-04-03T03:03:08;13.10;99.90
43607;DHT22;29197;44.788;10.366;2023-04-03T03:06:03;13.10;99.90
43607;DHT22;29197;44.788;10.366;2023-04-03T03:08:52;13.10;99.90
43607;DHT22;29197;44.788;10.366;2023-04-03T03:11:41;12.60;99.90
43607;DHT22;29197;44.788;10.366;2023-04-03T03:14:31;12.10;99.90
43607;DHT22;29197;44.788;10.366;2023-04-03T03:17:19;12.00;99.90
43607;DHT22;29197;44.788;10.366;2023-04-03T03:20:08;12.10;99.90
43607;DHT22;29197;44.788;10.366;2023-04-03T03:22:57;12.00;99.90
43607;DHT22;29197;44.788;10.366;2023-04-03T03:25:45;12.00;99.90
43607;DHT22;29197;44.788;10.366;2023-04-03T03:28:35;12.40;99.90
43607;DHT22;29197;44.788;10.366;2023-04-03T03:31:25;12.50;99.90
43607;DHT22;29197;44.788;10.366;2023-04-03T03:34:14;12.30;99.90
43607;DHT22;29197;44.788;10.366;2023-04-03T03:37:03;12.50;99.90
43607;DHT22;29197;44.788;10.366;2023-04-03T03:39:51;12.70;99.90
43607;DHT22;29197;44.788;10.366;2023-04-03T03:42:40;12.80;99.90
43607;DHT22;29197;44.788;10.366;2023-04-03T03:45:28;13.00;99.90
43607;DHT22;29197;44.788;10.366;2023-04-03T03:48:19;13.00;99.90
43607;DHT22;29197;44.788;10.366;2023-04-03T03:51:08;13.00;99.90
43607;DHT22;29197;44.788;10.366;2023-04-03T03:53:56;13.00;99.90
43607;DHT22;29197;44.788;10.366;2023-04-03T03:56:45;13.10;99.90
43607;DHT22;29197;44.788;10.366;2023-04-03T03:59:33;13.20;99.90
43607;DHT22;29197;44.788;10.366;2023-04-03T04:02:31;13.30;99.90
43607;DHT22;29197;44.788;10.366;2023-04-03T04:05:21;13.20;99.90
43607;DHT22;29197;44.788;10.366;2023-04-03T04:08:09;13.20;99.90
43607;DHT22;29197;44.788;10.366;2023-04-03T04:10:58;13.20;99.90
43607;DHT22;29197;44.788;10.366;2023-04-03T04:13:46;13.20;99.90
43607;DHT22;29197;44.788;10.366;2023-04-03T04:16:35;13.20;99.90
43607;DHT22;29197;44.788;10.366;2023-04-03T04:19:23;13.10;99.90
43607;DHT22;29197;44.788;10.366;2023-04-03T04:22:13;13.00;99.90
43607;DHT22;29197;44.788;10.366;2023-04-03T04:25:02;12.70;99.90
43607;DHT22;29197;44.788;10.366;2023-04-03T04:27:50;12.70;99.90
43607;DHT22;29197;44.788;10.366;2023-04-03T04:30:39;12.80;99.90
43607;DHT22;29197;44.788;10.366;2023-04-03T04:33:27;12.70;99.90
43607;DHT22;29197;44.788;10.366;2023-04-03T04:36:16;12.70;99.90
43607;DHT22;29197;44.788;10.366;2023-04-03T04:39:06;12.80;99.90
43607;DHT22;29197;44.788;10.366;2023-04-03T04:41:55;12.80;99.90
43607;DHT22;29197;44.788;10.366;2023-04-03T04:44:44;12.80;99.90
43607;DHT22;29197;44.788;10.366;2023-04-03T04:47:32;12.80;99.90
43607;DHT22;29197;44.788;10.366;2023-04-03T04:50:21;12.80;99.90
43607;DHT22;29197;44.788;10.366;2023-04-03T04:53:09;12.80;99.90
43607;DHT22;29197;44.788;10.366;2023-04-03T04:55:59;12.90;99.90
43607;DHT22;29197;44.788;10.366;2023-04-03T04:58:48;12.80;99.90
43607;DHT22;29197;44.788;10.366;2023-04-03T05:01:36;12.90;99.90
43607;DHT22;29197;44.788;10.366;2023-04-03T05:04:25;12.80;99.90
43607;DHT22;29197;44.788;10.366;2023-04-03T05:07:13;12.80;99.90
43607;DHT22;29197;44.788;10.366;2023-04-03T05:10:02;12.80;99.90
43607;DHT22;29197;44.788;10.366;2023-04-03T05:12:52;12.80;99.90
43607;DHT22;29197;44.788;10.366;2023-04-03T05:15:41;12.80;99.90
43607;DHT22;29197;44.788;10.366;2023-04-03T05:18:29;12.70;99.90
43607;DHT22;29197;44.788;10.366;2023-04-03T05:21:18;12.70;99.90
43607;DHT22;29197;44.788;10.366;2023-04-03T05:24:08;12.70;99.90
43607;DHT22;29197;44.788;10.366;2023-04-03T05:26:57;12.70;99.90
43607;DHT22;29197;44.788;10.366;2023-04-03T05:29:47;12.60;99.90
43607;DHT22;29197;44.788;10.366;2023-04-03T05:32:35;12.70;99.90
43607;DHT22;29197;44.788;10.366;2023-04-03T05:35:24;12.70;99.90
43607;DHT22;29197;44.788;10.366;2023-04-03T05:38:13;12.80;99.90
43607;DHT22;29197;44.788;10.366;2023-04-03T05:41:02;12.70;99.90
43607;DHT22;29197;44.788;10.366;2023-04-03T05:43:50;12.70;99.90
43607;DHT22;29197;44.788;10.366;2023-04-03T05:46:40;12.70;99.90
43607;DHT22;29197;44.788;10.366;2023-04-03T05:49:29;12.70;99.90
43607;DHT22;29197;44.788;10.366;2023-04-03T05:52:21;12.80;99.90
43607;DHT22;29197;44.788;10.366;2023-04-03T05:55:10;12.70;99.90
43607;DHT22;29197;44.788;10.366;2023-04-03T05:57:59;12.80;99.90
43607;DHT22;29197;44.788;10.366;2023-04-03T06:00:47;12.80;99.90
43607;DHT22;29197;44.788;10.366;2023-04-03T06:03:37;12.80;99.90
43607;DHT22;29197;44.788;10.366;2023-04-03T06:06:43;12.90;99.90
43607;DHT22;29197;44.788;10.366;2023-04-03T06:09:31;12.80;99.90
43607;DHT22;29197;44.788;10.366;2023-04-03T06:12:20;12.90;99.90
43607;DHT22;29197;44.788;10.366;2023-04-03T06:15:09;13.00;99.90
43607;DHT22;29197;44.788;10.366;2023-04-03T06:17:58;12.90;99.90
43607;DHT22;29197;44.788;10.366;2023-04-03T06:20:48;12.90;99.90
43607;DHT22;29197;44.788;10.366;2023-04-03T06:23:37;13.00;99.90
43607;DHT22;29197;44.788;10.366;2023-04-03T06:26:25;13.10;99.90
43607;DHT22;29197;44.788;10.366;2023-04-03T06:29:14;13.20;99.90
43607;DHT22;29197;44.788;10.366;2023-04-03T06:32:02;13.20;99.90
43607;DHT22;29197;44.788;10.366;2023-04-03T06:34:51;13.30;99.90
43607;DHT22;29197;44.788;10.366;2023-04-03T06:37:41;13.40;99.90
43607;DHT22;29197;44.788;10.366;2023-04-03T06:40:30;13.50;99.90
43607;DHT22;29197;44.788;10.366;2023-04-03T06:43:19;13.60;99.90
43607;DHT22;29197;44.788;10.366;2023-04-03T06:46:13;13.70;99.90
43607;DHT22;29197;44.788;10.366;2023-04-03T06:49:02;13.80;99.90
43607;DHT22;29197;44.788;10.366;2023-04-03T06:51:51;13.90;99.90
43607;DHT22;29197;44.788;10.366;2023-04-03T06:54:41;14.00;99.90
43607;DHT22;29197;44.788;10.366;2023-04-03T06:57:30;14.10;99.90
43607;DHT22;29197;44.788;10.366;2023-04-03T07:00:19;14.20;99.90
43607;DHT22;29197;44.788;10.366;2023-04-03T07:03:08;14.20;99.90
43607;DHT22;29197;44.788;10.366;2023-04-03T07:05:56;14.30;99.90
43607;DHT22;29197;44.788;10.366;2023-04-03T07:08:45;14.30;99.90
43607;DHT22;29197;44.788;10.366;2023-04-03T07:11:36;14.30;99.90
43607;DHT22;29197;44.788;10.366;2023-04-03T07:14:25;14.30;99.90
43607;DHT22;29197;44.788;10.366;2023-04-03T07:17:13;14.40;99.90
43607;DHT22;29197;44.788;10.366;2023-04-03T07:20:02;14.40;99.90
43607;DHT22;29197;44.788;10.366;2023-04-03T07:22:51;14.40;99.90
43607;DHT22;29197;44.788;10.366;2023-04-03T07:25:42;14.70;99.90
43607;DHT22;29197;44.788;10.366;2023-04-03T07:28:32;15.00;99.90
43607;DHT22;29197;44.788;10.366;2023-04-03T07:31:21;15.10;99.90
43607;DHT22;29197;44.788;10.366;2023-04-03T07:34:10;15.00;99.90
43607;DHT22;29197;44.788;10.366;2023-04-03T07:36:58;15.00;99.90
43607;DHT22;29197;44.788;10.366;2023-04-03T07:39:48;15.10;99.90
43607;DHT22;29197;44.788;10.366;2023-04-03T07:42:36;15.20;99.90
43607;DHT22;29197;44.788;10.366;2023-04-03T07:45:26;15.40;99.90
43607;DHT22;29197;44.788;10.366;2023-04-03T07:48:16;15.60;99.90
43607;DHT22;29197;44.788;10.366;2023-04-03T07:51:05;15.80;99.90
43607;DHT22;29197;44.788;10.366;2023-04-03T07:53:53;15.90;99.90
43607;DHT22;29197;44.788;10.366;2023-04-03T07:56:42;16.10;99.90
43607;DHT22;29197;44.788;10.366;2023-04-03T07:59:31;16.10;99.90
43607;DHT22;29197;44.788;10.366;2023-04-03T08:02:20;16.20;99.90
43607;DHT22;29197;44.788;10.366;2023-04-03T08:05:09;16.30;99.90
43607;DHT22;29197;44.788;10.366;2023-04-03T08:07:58;16.00;99.90
43607;DHT22;29197;44.788;10.366;2023-04-03T08:10:49;15.90;99.90
43607;DHT22;29197;44.788;10.366;2023-04-03T08:13:38;16.00;99.90
43607;DHT22;29197;44.788;10.366;2023-04-03T08:16:28;16.00;99.90
43607;DHT22;29197;44.788;10.366;2023-04-03T08:19:18;16.00;99.90
43607;DHT22;29197;44.788;10.366;2023-04-03T08:22:13;15.90;99.90
43607;DHT22;29197;44.788;10.366;2023-04-03T08:25:01;15.90;99.90
43607;DHT22;29197;44.788;10.366;2023-04-03T08:27:50;16.60;99.90
43607;DHT22;29197;44.788;10.366;2023-04-03T08:30:39;16.10;99.90
43607;DHT22;29197;44.788;10.366;2023-04-03T08:33:29;16.10;99.90
43607;DHT22;29197;44.788;10.366;2023-04-03T08:36:22;16.10;99.90
43607;DHT22;29197;44.788;10.366;2023-04-03T08:39:11;16.10;99.90
43607;DHT22;29197;44.788;10.366;2023-04-03T08:42:05;16.10;99.90
43607;DHT22;29197;44.788;10.366;2023-04-03T08:44:58;16.20;99.90
43607;DHT22;29197;44.788;10.366;2023-04-03T08:47:55;16.20;99.90
43607;DHT22;29197;44.788;10.366;2023-04-03T08:50:48;16.30;99.90
43607;DHT22;29197;44.788;10.366;2023-04-03T08:53:44;16.00;99.90
43607;DHT22;29197;44.788;10.366;2023-04-03T08:56:34;16.00;99.90
43607;DHT22;29197;44.788;10.366;2023-04-03T08:59:27;16.10;99.90
43607;DHT22;29197;44.788;10.366;2023-04-03T09:02:24;16.00;99.90
43607;DHT22;29197;44.788;10.366;2023-04-03T09:05:16;16.10;99.90
43607;DHT22;29197;44.788;10.366;2023-04-03T09:08:11;16.20;99.90
43607;DHT22;29197;44.788;10.366;2023-04-03T09:11:11;16.10;99.90
43607;DHT22;29197;44.788;10.366;2023-04-03T09:14:08;16.10;99.90
43607;DHT22;29197;44.788;10.366;2023-04-03T09:17:03;16.20;99.90
43607;DHT22;29197;44.788;10.366;2023-04-03T09:20:01;16.30;99.90
43607;DHT22;29197;44.788;10.366;2023-04-03T09:22:51;16.40;99.90
43607;DHT22;29197;44.788;10.366;2023-04-03T09:25:40;16.50;99.90
43607;DHT22;29197;44.788;10.366;2023-04-03T09:28:31;16.60;99.90
43607;DHT22;29197;44.788;10.366;2023-04-03T09:31:37;16.80;99.90
43607;DHT22;29197;44.788;10.366;2023-04-03T09:34:31;16.90;99.90
43607;DHT22;29197;44.788;10.366;2023-04-03T09:37:39;17.00;99.90
43607;DHT22;29197;44.788;10.366;2023-04-03T09:40:31;16.90;99.90
43607;DHT22;29197;44.788;10.366;2023-04-03T09:43:28;17.10;99.90
43607;DHT22;29197;44.788;10.366;2023-04-03T09:46:25;17.00;99.90
43607;DHT22;29197;44.788;10.366;2023-04-03T09:49:17;16.90;99.90
43607;DHT22;29197;44.788;10.366;2023-04-03T09:52:19;16.60;99.90
43607;DHT22;29197;44.788;10.366;2023-04-03T09:55:14;16.80;99.90
43607;DHT22;29197;44.788;10.366;2023-04-03T09:58:05;17.10;99.90
43607;DHT22;29197;44.788;10.366;2023-04-03T10:01:25;17.30;99.90
43607;DHT22;29197;44.788;10.366;2023-04-03T10:04:16;17.60;99.90
43607;DHT22;29197;44.788;10.366;2023-04-03T10:07:29;17.90;99.90
43607;DHT22;29197;44.788;10.366;2023-04-03T10:10:20;18.00;99.90
43607;DHT22;29197;44.788;10.366;2023-04-03T10:13:12;18.20;99.90
43607;DHT22;29197;44.788;10.366;2023-04-03T10:16:10;18.20;99.90
43607;DHT22;29197;44.788;10.366;2023-04-03T10:19:13;17.80;99.90
43607;DHT22;29197;44.788;10.366;2023-04-03T10:22:16;17.70;99.90
43607;DHT22;29197;44.788;10.366;2023-04-03T10:25:12;17.90;99.90
43607;DHT22;29197;44.788;10.366;2023-04-03T10:28:06;18.30;99.90
43607;DHT22;29197;44.788;10.366;2023-04-03T10:31:03;18.50;99.90
43607;DHT22;29197;44.788;10.366;2023-04-03T10:34:04;18.60;99.90
43607;DHT22;29197;44.788;10.366;2023-04-03T10:36:56;18.80;99.90
43607;DHT22;29197;44.788;10.366;2023-04-03T10:39:51;19.00;99.90
43607;DHT22;29197;44.788;10.366;2023-04-03T10:42:46;19.10;99.90
43607;DHT22;29197;44.788;10.366;2023-04-03T10:45:49;18.90;99.90
43607;DHT22;29197;44.788;10.366;2023-04-03T10:49:13;18.80;99.90
43607;DHT22;29197;44.788;10.366;2023-04-03T10:52:10;18.70;99.90
43607;DHT22;29197;44.788;10.366;2023-04-03T10:55:24;18.70;99.90
43607;DHT22;29197;44.788;10.366;2023-04-03T10:58:24;18.60;99.90
43607;DHT22;29197;44.788;10.366;2023-04-03T11:01:19;18.50;99.90
43607;DHT22;29197;44.788;10.366;2023-04-03T11:04:11;18.40;99.90
43607;DHT22;29197;44.788;10.366;2023-04-03T11:07:03;18.30;99.90
43607;DHT22;29197;44.788;10.366;2023-04-03T11:09:56;18.20;99.90
43607;DHT22;29197;44.788;10.366;2023-04-03T11:12:51;17.90;99.90
43607;DHT22;29197;44.788;10.366;2023-04-03T11:15:40;17.90;99.90
43607;DHT22;29197;44.788;10.366;2023-04-03T11:18:35;18.10;99.90
43607;DHT22;29197;44.788;10.366;2023-04-03T11:21:29;18.30;99.90
43607;DHT22;29197;44.788;10.366;2023-04-03T11:24:24;18.60;99.90
43607;DHT22;29197;44.788;10.366;2023-04-03T11:27:17;18.80;99.90
43607;DHT22;29197;44.788;10.366;2023-04-03T11:30:16;19.40;99.90
43607;DHT22;29197;44.788;10.366;2023-04-03T11:33:20;19.80;99.90
43607;DHT22;29197;44.788;10.366;2023-04-03T11:36:19;20.20;99.90
43607;DHT22;29197;44.788;10.366;2023-04-03T11:39:22;20.50;99.90
43607;DHT22;29197;44.788;10.366;2023-04-03T11:42:16;20.80;99.90
43607;DHT22;29197;44.788;10.366;2023-04-03T11:45:37;20.60;99.90
43607;DHT22;29197;44.788;10.366;2023-04-03T11:48:49;20.20;99.90
43607;DHT22;29197;44.788;10.366;2023-04-03T11:51:41;20.00;99.90
43607;DHT22;29197;44.788;10.366;2023-04-03T11:54:45;20.20;99.90
43607;DHT22;29197;44.788;10.366;2023-04-03T11:58:03;20.70;99.90
43607;DHT22;29197;44.788;10.366;2023-04-03T12:00:55;21.10;99.90
43607;DHT22;29197;44.788;10.366;2023-04-03T12:04:07;21.30;99.90
43607;DHT22;29197;44.788;10.366;2023-04-03T12:07:20;21.70;99.90
43607;DHT22;29197;44.788;10.366;2023-04-03T12:10:17;21.90;99.90
43607;DHT22;29197;44.788;10.366;2023-04-03T12:13:18;22.00;99.90
43607;DHT22;29197;44.788;10.366;2023-04-03T12:16:18;22.00;99.90
43607;DHT22;29197;44.788;10.366;2023-04-03T12:19:35;22.20;99.90
43607;DHT22;29197;44.788;10.366;2023-04-03T12:22:26;22.50;99.90
43607;DHT22;29197;44.788;10.366;2023-04-03T12:25:48;22.60;99.90
43607;DHT22;29197;44.788;10.366;2023-04-03T12:28:39;22.00;99.90
43607;DHT22;29197;44.788;10.366;2023-04-03T12:31:41;21.60;99.90
43607;DHT22;29197;44.788;10.366;2023-04-03T12:34:45;21.80;99.90
43607;DHT22;29197;44.788;10.366;2023-04-03T12:37:49;21.80;99.90
43607;DHT22;29197;44.788;10.366;2023-04-03T12:40:50;21.70;99.90
43607;DHT22;29197;44.788;10.366;2023-04-03T12:43:48;21.80;99.90
43607;DHT22;29197;44.788;10.366;2023-04-03T12:46:44;22.10;99.90
43607;DHT22;29197;44.788;10.366;2023-04-03T12:49:37;22.30;99.90
43607;DHT22;29197;44.788;10.366;2023-04-03T12:52:33;22.40;99.90
43607;DHT22;29197;44.788;10.366;2023-04-03T12:55:22;22.50;99.60
43607;DHT22;29197;44.788;10.366;2023-04-03T12:58:16;22.30;99.90
43607;DHT22;29197;44.788;10.366;2023-04-03T13:01:11;22.40;99.90
43607;DHT22;29197;44.788;10.366;2023-04-03T13:04:01;22.50;99.90
43607;DHT22;29197;44.788;10.366;2023-04-03T13:06:51;22.60;99.80
43607;DHT22;29197;44.788;10.366;2023-04-03T13:09:40;22.80;99.40
43607;DHT22;29197;44.788;10.366;2023-04-03T13:12:29;22.40;99.90
43607;DHT22;29197;44.788;10.366;2023-04-03T13:15:22;22.60;99.90
43607;DHT22;29197;44.788;10.366;2023-04-03T13:18:22;22.40;99.90
43607;DHT22;29197;44.788;10.366;2023-04-03T13:21:15;21.80;99.90
43607;DHT22;29197;44.788;10.366;2023-04-03T13:24:05;21.60;99.90
43607;DHT22;29197;44.788;10.366;2023-04-03T13:27:02;21.80;99.90
43607;DHT22;29197;44.788;10.366;2023-04-03T13:29:52;21.90;99.90
43607;DHT22;29197;44.788;10.366;2023-04-03T13:32:43;21.90;99.90
43607;DHT22;29197;44.788;10.366;2023-04-03T13:35:37;22.30;99.90
43607;DHT22;29197;44.788;10.366;2023-04-03T13:38:31;22.50;99.90
43607;DHT22;29197;44.788;10.366;2023-04-03T13:41:25;21.60;99.90
43607;DHT22;29197;44.788;10.366;2023-04-03T13:44:28;21.00;99.90
43607;DHT22;29197;44.788;10.366;2023-04-03T13:47:19;20.60;99.90
43607;DHT22;29197;44.788;10.366;2023-04-03T13:50:17;20.60;99.90
43607;DHT22;29197;44.788;10.366;2023-04-03T13:53:11;20.80;99.90
43607;DHT22;29197;44.788;10.366;2023-04-03T13:56:18;20.90;99.90
43607;DHT22;29197;44.788;10.366;2023-04-03T13:59:21;20.70;99.90
43607;DHT22;29197;44.788;10.366;2023-04-03T14:02:17;20.70;99.90
43607;DHT22;29197;44.788;10.366;2023-04-03T14:05:06;20.70;99.90
43607;DHT22;29197;44.788;10.366;2023-04-03T14:22:14;20.00;99.90
43607;DHT22;29197;44.788;10.366;2023-04-03T14:30:44;19.10;99.90
43607;DHT22;29197;44.788;10.366;2023-04-03T14:33:33;19.00;99.90
43607;DHT22;29197;44.788;10.366;2023-04-03T14:36:25;18.90;99.90
43607;DHT22;29197;44.788;10.366;2023-04-03T14:39:17;18.90;99.90
43607;DHT22;29197;44.788;10.366;2023-04-03T14:42:13;18.70;99.90
43607;DHT22;29197;44.788;10.366;2023-04-03T14:45:05;18.60;99.90
43607;DHT22;29197;44.788;10.366;2023-04-03T14:47:55;18.70;99.90
43607;DHT22;29197;44.788;10.366;2023-04-03T14:50:44;19.10;99.90
43607;DHT22;29197;44.788;10.366;2023-04-03T14:53:51;19.40;99.90
43607;DHT22;29197;44.788;10.366;2023-04-03T14:56:40;19.30;99.90
43607;DHT22;29197;44.788;10.366;2023-04-03T14:59:31;19.20;99.90
43607;DHT22;29197;44.788;10.366;2023-04-03T15:05:15;18.80;99.90
43607;DHT22;29197;44.788;10.366;2023-04-03T15:08:04;18.80;99.90
43607;DHT22;29197;44.788;10.366;2023-04-03T15:10:53;18.90;99.90
43607;DHT22;29197;44.788;10.366;2023-04-03T15:16:32;19.00;99.90
43607;DHT22;29197;44.788;10.366;2023-04-03T15:22:13;19.30;99.90
43607;DHT22;29197;44.788;10.366;2023-04-03T15:30:41;19.60;99.90
43607;DHT22;29197;44.788;10.366;2023-04-03T15:33:32;19.60;99.90
43607;DHT22;29197;44.788;10.366;2023-04-03T15:36:21;19.70;99.90
43607;DHT22;29197;44.788;10.366;2023-04-03T15:39:15;19.60;99.90
43607;DHT22;29197;44.788;10.366;2023-04-03T15:42:04;19.50;99.90
43607;DHT22;29197;44.788;10.366;2023-04-03T15:44:53;19.40;99.90
43607;DHT22;29197;44.788;10.366;2023-04-03T15:47:42;19.30;99.90
43607;DHT22;29197;44.788;10.366;2023-04-03T15:50:33;19.30;99.90
43607;DHT22;29197;44.788;10.366;2023-04-03T15:53:21;19.30;99.90
43607;DHT22;29197;44.788;10.366;2023-04-03T15:58:59;18.90;99.90
43607;DHT22;29197;44.788;10.366;2023-04-03T16:01:48;18.90;99.90
43607;DHT22;29197;44.788;10.366;2023-04-03T16:04:37;18.70;99.90
43607;DHT22;29197;44.788;10.366;2023-04-03T16:07:27;18.60;99.90
43607;DHT22;29197;44.788;10.366;2023-04-03T16:10:17;18.50;99.90
43607;DHT22;29197;44.788;10.366;2023-04-03T16:13:06;18.60;99.90
43607;DHT22;29197;44.788;10.366;2023-04-03T16:15:54;18.60;99.90
43607;DHT22;29197;44.788;10.366;2023-04-03T16:18:43;18.50;99.90
43607;DHT22;29197;44.788;10.366;2023-04-03T16:21:33;18.30;99.90
43607;DHT22;29197;44.788;10.366;2023-04-03T16:24:23;18.20;99.90
43607;DHT22;29197;44.788;10.366;2023-04-03T16:27:12;18.10;99.90
43607;DHT22;29197;44.788;10.366;2023-04-03T16:30:00;17.90;99.90
43607;DHT22;29197;44.788;10.366;2023-04-03T16:32:49;17.90;99.90
43607;DHT22;29197;44.788;10.366;2023-04-03T16:35:38;17.70;99.90
43607;DHT22;29197;44.788;10.366;2023-04-03T16:38:29;17.70;99.90
43607;DHT22;29197;44.788;10.366;2023-04-03T16:41:18;17.60;99.90
43607;DHT22;29197;44.788;10.366;2023-04-03T16:44:07;17.70;99.90
43607;DHT22;29197;44.788;10.366;2023-04-03T16:46:55;17.60;99.90
43607;DHT22;29197;44.788;10.366;2023-04-03T16:49:44;17.50;99.90
43607;DHT22;29197;44.788;10.366;2023-04-03T16:52:33;17.50;99.90
43607;DHT22;29197;44.788;10.366;2023-04-03T16:55:22;17.40;99.90
43607;DHT22;29197;44.788;10.366;2023-04-03T20:50:27;14.20;99.90
43607;DHT22;29197;44.788;10.366;2023-04-03T20:53:16;13.90;99.90
43607;DHT22;29197;44.788;10.366;2023-04-03T20:56:06;13.80;99.90
43607;DHT22;29197;44.788;10.366;2023-04-03T21:31:07;13.10;99.90
43607;DHT22;29197;44.788;10.366;2023-04-03T21:48:04;12.90;99.90
43607;DHT22;29197;44.788;10.366;2023-04-03T21:51:02;13.10;99.90
43607;DHT22;29197;44.788;10.366;2023-04-03T21:53:53;13.10;99.90
43607;DHT22;29197;44.788;10.366;2023-04-03T21:56:41;13.10;99.90
43607;DHT22;29197;44.788;10.366;2023-04-03T21:59:30;13.10;99.90
43607;DHT22;29197;44.788;10.366;2023-04-03T22:02:19;13.20;99.90
43607;DHT22;29197;44.788;10.366;2023-04-03T22:05:07;13.10;99.90
43607;DHT22;29197;44.788;10.366;2023-04-03T22:07:56;13.10;99.90
43607;DHT22;29197;44.788;10.366;2023-04-03T22:10:46;13.10;99.90
43607;DHT22;29197;44.788;10.366;2023-04-03T22:13:34;13.10;99.90
43607;DHT22;29197;44.788;10.366;2023-04-03T22:16:23;13.00;99.90
43607;DHT22;29197;44.788;10.366;2023-04-03T22:19:12;13.20;99.90
43607;DHT22;29197;44.788;10.366;2023-04-03T22:22:01;13.30;99.90
43607;DHT22;29197;44.788;10.366;2023-04-03T22:24:50;13.30;99.90
43607;DHT22;29197;44.788;10.366;2023-04-03T22:27:41;13.40;99.90
43607;DHT22;29197;44.788;10.366;2023-04-03T22:30:29;13.30;99.90
43607;DHT22;29197;44.788;10.366;2023-04-03T22:33:18;13.30;99.90
43607;DHT22;29197;44.788;10.366;2023-04-03T22:38:56;13.40;99.90
43607;DHT22;29197;44.788;10.366;2023-04-03T22:41:46;13.40;99.90
43607;DHT22;29197;44.788;10.366;2023-04-03T22:44:36;13.40;99.90
43607;DHT22;29197;44.788;10.366;2023-04-03T23:46:42;13.00;99.90
43607;DHT22;29197;44.788;10.366;2023-04-03T23:49:31;13.00;99.90
43607;DHT22;29197;44.788;10.366;2023-04-03T23:52:21;13.00;99.90
43607;DHT22;29197;44.788;10.366;2023-04-03T23:55:09;12.90;99.90
43607;DHT22;29197;44.788;10.366;2023-04-03T23:57:58;12.90;99.90
